sensor_id;sensor_type;location;lat;lon;timestamp;temperature;humidity
76168;DHT22;64927;48.214;16.378;2022-11-14T00:00:43;9.40;78.70
76168;DHT22;64927;48.214;16.378;2022-11-14T00:03:12;9.40;78.70
76168;DHT22;64927;48.214;16.378;2022-11-14T00:05:42;9.40;78.50
76168;DHT22;64927;48.214;16.378;2022-11-14T00:08:21;9.50;78.40
76168;DHT22;64927;48.214;16.378;2022-11-14T00:10:48;9.50;78.40
76168;DHT22;64927;48.214;16.378;2022-11-14T00:13:18;9.50;78.40
76168;DHT22;64927;48.214;16.378;2022-11-14T00:15:46;9.50;78.30
76168;DHT22;64927;48.214;16.378;2022-11-14T00:18:14;9.50;78.40
76168;DHT22;64927;48.214;16.378;2022-11-14T00:20:40;9.60;78.10
76168;DHT22;64927;48.214;16.378;2022-11-14T00:23:06;9.50;77.80
76168;DHT22;64927;48.214;16.378;2022-11-14T00:25:32;9.50;77.90
76168;DHT22;64927;48.214;16.378;2022-11-14T00:27:58;9.60;77.70
76168;DHT22;64927;48.214;16.378;2022-11-14T00:30:24;9.60;77.40
76168;DHT22;64927;48.214;16.378;2022-11-14T00:32:50;9.50;77.40
76168;DHT22;64927;48.214;16.378;2022-11-14T00:35:15;9.40;77.60
76168;DHT22;64927;48.214;16.378;2022-11-14T00:37:41;9.40;77.70
76168;DHT22;64927;48.214;16.378;2022-11-14T00:40:07;9.40;78.00
76168;DHT22;64927;48.214;16.378;2022-11-14T00:42:33;9.30;77.80
76168;DHT22;64927;48.214;16.378;2022-11-14T00:44:59;9.30;78.10
76168;DHT22;64927;48.214;16.378;2022-11-14T00:47:24;9.10;78.50
76168;DHT22;64927;48.214;16.378;2022-11-14T00:49:50;9.00;78.90
76168;DHT22;64927;48.214;16.378;2022-11-14T00:52:18;9.10;79.00
76168;DHT22;64927;48.214;16.378;2022-11-14T00:54:43;9.10;78.90
76168;DHT22;64927;48.214;16.378;2022-11-14T00:57:09;9.20;78.80
76168;DHT22;64927;48.214;16.378;2022-11-14T00:59:35;9.30;78.30
76168;DHT22;64927;48.214;16.378;2022-11-14T01:02:00;9.40;77.90
76168;DHT22;64927;48.214;16.378;2022-11-14T01:04:29;9.40;77.70
76168;DHT22;64927;48.214;16.378;2022-11-14T01:06:54;9.50;77.50
76168;DHT22;64927;48.214;16.378;2022-11-14T01:09:20;9.50;77.20
76168;DHT22;64927;48.214;16.378;2022-11-14T01:11:46;9.50;77.00
76168;DHT22;64927;48.214;16.378;2022-11-14T01:14:11;9.50;77.10
76168;DHT22;64927;48.214;16.378;2022-11-14T01:16:37;9.50;76.90
76168;DHT22;64927;48.214;16.378;2022-11-14T01:19:03;9.40;76.90
76168;DHT22;64927;48.214;16.378;2022-11-14T01:21:29;9.50;76.80
76168;DHT22;64927;48.214;16.378;2022-11-14T01:23:54;9.40;76.80
76168;DHT22;64927;48.214;16.378;2022-11-14T01:26:20;9.40;76.90
76168;DHT22;64927;48.214;16.378;2022-11-14T01:28:45;9.40;77.00
76168;DHT22;64927;48.214;16.378;2022-11-14T01:31:20;9.40;77.00
76168;DHT22;64927;48.214;16.378;2022-11-14T01:33:52;9.30;77.10
76168;DHT22;64927;48.214;16.378;2022-11-14T01:36:19;9.40;77.20
76168;DHT22;64927;48.214;16.378;2022-11-14T01:38:45;9.30;77.10
76168;DHT22;64927;48.214;16.378;2022-11-14T01:41:15;9.40;77.20
76168;DHT22;64927;48.214;16.378;2022-11-14T01:43:41;9.40;77.40
76168;DHT22;64927;48.214;16.378;2022-11-14T01:46:18;9.40;77.60
76168;DHT22;64927;48.214;16.378;2022-11-14T01:51:32;9.40;77.50
76168;DHT22;64927;48.214;16.378;2022-11-14T01:54:02;9.50;77.40
76168;DHT22;64927;48.214;16.378;2022-11-14T01:56:36;9.60;76.90
76168;DHT22;64927;48.214;16.378;2022-11-14T01:59:11;9.70;76.60
76168;DHT22;64927;48.214;16.378;2022-11-14T02:01:44;9.70;76.60
76168;DHT22;64927;48.214;16.378;2022-11-14T02:04:15;9.80;76.50
76168;DHT22;64927;48.214;16.378;2022-11-14T02:06:43;9.90;76.40
76168;DHT22;64927;48.214;16.378;2022-11-14T02:09:10;9.90;75.80
76168;DHT22;64927;48.214;16.378;2022-11-14T02:11:42;9.80;76.00
76168;DHT22;64927;48.214;16.378;2022-11-14T02:14:09;9.90;75.70
76168;DHT22;64927;48.214;16.378;2022-11-14T02:16:38;9.80;75.80
76168;DHT22;64927;48.214;16.378;2022-11-14T02:19:04;9.80;75.80
76168;DHT22;64927;48.214;16.378;2022-11-14T02:21:33;9.80;75.80
76168;DHT22;64927;48.214;16.378;2022-11-14T02:24:01;9.60;76.00
76168;DHT22;64927;48.214;16.378;2022-11-14T02:26:27;9.50;76.40
76168;DHT22;64927;48.214;16.378;2022-11-14T02:28:53;9.50;76.70
76168;DHT22;64927;48.214;16.378;2022-11-14T02:31:20;9.50;76.70
76168;DHT22;64927;48.214;16.378;2022-11-14T02:33:46;9.40;77.00
76168;DHT22;64927;48.214;16.378;2022-11-14T02:36:12;9.30;77.50
76168;DHT22;64927;48.214;16.378;2022-11-14T02:38:40;9.40;77.50
76168;DHT22;64927;48.214;16.378;2022-11-14T02:41:08;9.50;77.30
76168;DHT22;64927;48.214;16.378;2022-11-14T02:43:33;9.50;77.00
76168;DHT22;64927;48.214;16.378;2022-11-14T02:45:59;9.60;76.90
76168;DHT22;64927;48.214;16.378;2022-11-14T02:48:25;9.60;76.80
76168;DHT22;64927;48.214;16.378;2022-11-14T02:50:50;9.60;76.80
76168;DHT22;64927;48.214;16.378;2022-11-14T02:53:16;9.70;76.90
76168;DHT22;64927;48.214;16.378;2022-11-14T02:55:42;9.80;76.40
76168;DHT22;64927;48.214;16.378;2022-11-14T02:58:07;9.60;76.10
76168;DHT22;64927;48.214;16.378;2022-11-14T03:00:33;9.60;76.50
76168;DHT22;64927;48.214;16.378;2022-11-14T03:02:59;9.60;76.60
76168;DHT22;64927;48.214;16.378;2022-11-14T03:05:24;9.60;76.50
76168;DHT22;64927;48.214;16.378;2022-11-14T03:07:54;9.60;76.70
76168;DHT22;64927;48.214;16.378;2022-11-14T03:10:21;9.50;76.90
76168;DHT22;64927;48.214;16.378;2022-11-14T03:12:47;9.40;77.00
76168;DHT22;64927;48.214;16.378;2022-11-14T03:15:13;9.40;77.60
76168;DHT22;64927;48.214;16.378;2022-11-14T03:17:38;9.50;77.30
76168;DHT22;64927;48.214;16.378;2022-11-14T03:20:05;9.40;77.40
76168;DHT22;64927;48.214;16.378;2022-11-14T03:22:33;9.40;77.60
76168;DHT22;64927;48.214;16.378;2022-11-14T03:24:59;9.50;77.60
76168;DHT22;64927;48.214;16.378;2022-11-14T03:27:25;9.40;77.80
76168;DHT22;64927;48.214;16.378;2022-11-14T03:29:50;9.50;78.00
76168;DHT22;64927;48.214;16.378;2022-11-14T03:32:16;9.40;78.00
76168;DHT22;64927;48.214;16.378;2022-11-14T03:34:42;9.40;78.30
76168;DHT22;64927;48.214;16.378;2022-11-14T03:37:08;9.50;78.20
76168;DHT22;64927;48.214;16.378;2022-11-14T03:39:34;9.60;78.10
76168;DHT22;64927;48.214;16.378;2022-11-14T03:42:03;9.60;77.70
76168;DHT22;64927;48.214;16.378;2022-11-14T03:44:29;9.50;77.80
76168;DHT22;64927;48.214;16.378;2022-11-14T03:46:56;9.50;78.20
76168;DHT22;64927;48.214;16.378;2022-11-14T03:49:22;9.60;78.20
76168;DHT22;64927;48.214;16.378;2022-11-14T03:51:48;9.50;78.20
76168;DHT22;64927;48.214;16.378;2022-11-14T03:54:16;9.50;78.40
76168;DHT22;64927;48.214;16.378;2022-11-14T03:56:43;9.60;78.20
76168;DHT22;64927;48.214;16.378;2022-11-14T03:59:09;9.60;77.90
76168;DHT22;64927;48.214;16.378;2022-11-14T04:01:35;9.70;77.60
76168;DHT22;64927;48.214;16.378;2022-11-14T04:04:00;9.70;77.10
76168;DHT22;64927;48.214;16.378;2022-11-14T04:06:26;9.60;78.20
76168;DHT22;64927;48.214;16.378;2022-11-14T04:08:51;9.60;77.50
76168;DHT22;64927;48.214;16.378;2022-11-14T04:11:18;9.60;76.90
76168;DHT22;64927;48.214;16.378;2022-11-14T04:13:43;9.60;77.20
76168;DHT22;64927;48.214;16.378;2022-11-14T04:16:09;9.60;77.50
76168;DHT22;64927;48.214;16.378;2022-11-14T04:18:35;9.60;77.50
76168;DHT22;64927;48.214;16.378;2022-11-14T04:21:00;9.60;77.60
76168;DHT22;64927;48.214;16.378;2022-11-14T04:23:28;9.70;77.20
76168;DHT22;64927;48.214;16.378;2022-11-14T04:25:55;9.60;77.00
76168;DHT22;64927;48.214;16.378;2022-11-14T04:28:23;9.60;76.80
76168;DHT22;64927;48.214;16.378;2022-11-14T04:30:51;9.60;77.00
76168;DHT22;64927;48.214;16.378;2022-11-14T04:33:19;9.60;77.10
76168;DHT22;64927;48.214;16.378;2022-11-14T04:35:45;9.60;77.00
76168;DHT22;64927;48.214;16.378;2022-11-14T04:38:11;9.60;76.80
76168;DHT22;64927;48.214;16.378;2022-11-14T04:40:36;9.50;78.10
76168;DHT22;64927;48.214;16.378;2022-11-14T04:43:02;9.60;77.40
76168;DHT22;64927;48.214;16.378;2022-11-14T04:45:30;9.60;77.00
76168;DHT22;64927;48.214;16.378;2022-11-14T04:47:56;9.60;77.40
76168;DHT22;64927;48.214;16.378;2022-11-14T04:50:21;9.60;77.20
76168;DHT22;64927;48.214;16.378;2022-11-14T04:52:51;9.50;77.40
76168;DHT22;64927;48.214;16.378;2022-11-14T04:55:19;9.50;77.50
76168;DHT22;64927;48.214;16.378;2022-11-14T04:57:45;9.50;77.70
76168;DHT22;64927;48.214;16.378;2022-11-14T05:00:11;9.50;77.80
76168;DHT22;64927;48.214;16.378;2022-11-14T05:02:37;9.50;77.60
76168;DHT22;64927;48.214;16.378;2022-11-14T05:05:02;9.50;77.70
76168;DHT22;64927;48.214;16.378;2022-11-14T05:07:28;9.60;77.30
76168;DHT22;64927;48.214;16.378;2022-11-14T05:09:54;9.50;77.20
76168;DHT22;64927;48.214;16.378;2022-11-14T05:12:24;9.30;78.30
76168;DHT22;64927;48.214;16.378;2022-11-14T05:14:50;9.10;79.10
76168;DHT22;64927;48.214;16.378;2022-11-14T05:17:15;9.00;79.90
76168;DHT22;64927;48.214;16.378;2022-11-14T05:19:43;8.90;80.40
76168;DHT22;64927;48.214;16.378;2022-11-14T05:22:09;9.00;80.30
76168;DHT22;64927;48.214;16.378;2022-11-14T05:24:35;9.00;80.50
76168;DHT22;64927;48.214;16.378;2022-11-14T05:27:00;8.80;81.10
76168;DHT22;64927;48.214;16.378;2022-11-14T05:29:26;8.80;81.30
76168;DHT22;64927;48.214;16.378;2022-11-14T05:31:54;8.80;81.60
76168;DHT22;64927;48.214;16.378;2022-11-14T05:34:19;8.80;81.40
76168;DHT22;64927;48.214;16.378;2022-11-14T05:36:45;8.90;81.40
76168;DHT22;64927;48.214;16.378;2022-11-14T05:39:11;9.00;81.10
76168;DHT22;64927;48.214;16.378;2022-11-14T05:41:36;9.10;80.50
76168;DHT22;64927;48.214;16.378;2022-11-14T05:44:05;9.00;80.60
76168;DHT22;64927;48.214;16.378;2022-11-14T05:46:33;9.10;80.50
76168;DHT22;64927;48.214;16.378;2022-11-14T05:48:58;9.10;80.40
76168;DHT22;64927;48.214;16.378;2022-11-14T05:51:24;9.10;80.10
76168;DHT22;64927;48.214;16.378;2022-11-14T05:53:52;9.10;80.20
76168;DHT22;64927;48.214;16.378;2022-11-14T05:56:18;9.20;80.20
76168;DHT22;64927;48.214;16.378;2022-11-14T05:58:45;9.20;79.80
76168;DHT22;64927;48.214;16.378;2022-11-14T06:01:13;9.30;79.80
76168;DHT22;64927;48.214;16.378;2022-11-14T06:03:41;9.40;79.20
76168;DHT22;64927;48.214;16.378;2022-11-14T06:06:09;9.40;79.20
76168;DHT22;64927;48.214;16.378;2022-11-14T06:08:35;9.30;78.70
76168;DHT22;64927;48.214;16.378;2022-11-14T06:11:03;9.20;79.10
76168;DHT22;64927;48.214;16.378;2022-11-14T06:13:30;9.30;80.80
76168;DHT22;64927;48.214;16.378;2022-11-14T06:16:00;9.40;80.70
76168;DHT22;64927;48.214;16.378;2022-11-14T06:18:27;9.40;80.20
76168;DHT22;64927;48.214;16.378;2022-11-14T06:20:59;9.50;79.60
76168;DHT22;64927;48.214;16.378;2022-11-14T06:23:24;9.50;78.60
76168;DHT22;64927;48.214;16.378;2022-11-14T06:25:58;9.40;78.60
76168;DHT22;64927;48.214;16.378;2022-11-14T06:28:24;9.40;78.60
76168;DHT22;64927;48.214;16.378;2022-11-14T06:30:49;9.20;78.60
76168;DHT22;64927;48.214;16.378;2022-11-14T06:33:15;9.20;79.50
76168;DHT22;64927;48.214;16.378;2022-11-14T06:35:43;9.30;79.30
76168;DHT22;64927;48.214;16.378;2022-11-14T06:38:11;9.30;78.70
76168;DHT22;64927;48.214;16.378;2022-11-14T06:40:38;9.30;78.80
76168;DHT22;64927;48.214;16.378;2022-11-14T06:43:04;9.30;78.90
76168;DHT22;64927;48.214;16.378;2022-11-14T06:45:29;9.20;79.10
76168;DHT22;64927;48.214;16.378;2022-11-14T06:48:01;9.10;79.60
76168;DHT22;64927;48.214;16.378;2022-11-14T06:50:26;9.20;79.70
76168;DHT22;64927;48.214;16.378;2022-11-14T06:52:52;9.30;79.40
76168;DHT22;64927;48.214;16.378;2022-11-14T06:55:18;9.30;79.00
76168;DHT22;64927;48.214;16.378;2022-11-14T06:57:46;9.40;78.90
76168;DHT22;64927;48.214;16.378;2022-11-14T07:00:16;9.30;78.90
76168;DHT22;64927;48.214;16.378;2022-11-14T07:02:45;9.20;79.60
76168;DHT22;64927;48.214;16.378;2022-11-14T07:05:10;9.10;79.80
76168;DHT22;64927;48.214;16.378;2022-11-14T07:07:36;9.10;79.90
76168;DHT22;64927;48.214;16.378;2022-11-14T07:10:01;9.20;79.70
76168;DHT22;64927;48.214;16.378;2022-11-14T07:12:27;9.20;79.50
76168;DHT22;64927;48.214;16.378;2022-11-14T07:14:54;9.00;80.10
76168;DHT22;64927;48.214;16.378;2022-11-14T07:17:19;9.10;80.30
76168;DHT22;64927;48.214;16.378;2022-11-14T07:19:47;9.20;80.20
76168;DHT22;64927;48.214;16.378;2022-11-14T07:22:13;9.40;80.00
76168;DHT22;64927;48.214;16.378;2022-11-14T07:24:38;9.50;79.30
76168;DHT22;64927;48.214;16.378;2022-11-14T07:27:04;9.50;78.70
76168;DHT22;64927;48.214;16.378;2022-11-14T07:29:33;9.60;78.50
76168;DHT22;64927;48.214;16.378;2022-11-14T07:31:58;9.60;78.00
76168;DHT22;64927;48.214;16.378;2022-11-14T07:34:24;9.50;78.40
76168;DHT22;64927;48.214;16.378;2022-11-14T07:36:50;9.50;79.00
76168;DHT22;64927;48.214;16.378;2022-11-14T07:39:16;9.40;79.40
76168;DHT22;64927;48.214;16.378;2022-11-14T07:41:44;9.40;79.70
76168;DHT22;64927;48.214;16.378;2022-11-14T07:44:09;9.60;79.10
76168;DHT22;64927;48.214;16.378;2022-11-14T07:46:37;9.40;79.40
76168;DHT22;64927;48.214;16.378;2022-11-14T07:49:03;9.50;79.40
76168;DHT22;64927;48.214;16.378;2022-11-14T07:51:29;9.50;79.00
76168;DHT22;64927;48.214;16.378;2022-11-14T07:53:54;9.60;79.10
76168;DHT22;64927;48.214;16.378;2022-11-14T07:56:20;9.50;79.20
76168;DHT22;64927;48.214;16.378;2022-11-14T07:58:46;9.50;79.50
76168;DHT22;64927;48.214;16.378;2022-11-14T08:01:14;9.50;79.00
76168;DHT22;64927;48.214;16.378;2022-11-14T08:03:40;9.60;78.70
76168;DHT22;64927;48.214;16.378;2022-11-14T08:06:09;9.60;78.60
76168;DHT22;64927;48.214;16.378;2022-11-14T08:08:35;9.70;78.80
76168;DHT22;64927;48.214;16.378;2022-11-14T08:11:01;9.70;78.80
76168;DHT22;64927;48.214;16.378;2022-11-14T08:13:27;9.90;77.80
76168;DHT22;64927;48.214;16.378;2022-11-14T08:15:56;9.90;77.60
76168;DHT22;64927;48.214;16.378;2022-11-14T08:18:22;10.00;77.50
76168;DHT22;64927;48.214;16.378;2022-11-14T08:20:48;10.00;77.30
76168;DHT22;64927;48.214;16.378;2022-11-14T08:23:15;9.90;77.60
76168;DHT22;64927;48.214;16.378;2022-11-14T08:25:43;10.00;77.30
76168;DHT22;64927;48.214;16.378;2022-11-14T08:28:09;10.00;77.40
76168;DHT22;64927;48.214;16.378;2022-11-14T08:30:34;10.20;76.90
76168;DHT22;64927;48.214;16.378;2022-11-14T08:33:04;10.20;76.70
76168;DHT22;64927;48.214;16.378;2022-11-14T08:35:33;10.30;76.60
76168;DHT22;64927;48.214;16.378;2022-11-14T08:38:00;10.40;76.00
76168;DHT22;64927;48.214;16.378;2022-11-14T08:40:26;10.50;75.70
76168;DHT22;64927;48.214;16.378;2022-11-14T08:42:58;10.50;75.10
76168;DHT22;64927;48.214;16.378;2022-11-14T08:45:24;10.50;75.00
76168;DHT22;64927;48.214;16.378;2022-11-14T08:47:51;10.50;74.80
76168;DHT22;64927;48.214;16.378;2022-11-14T08:50:17;10.60;74.30
76168;DHT22;64927;48.214;16.378;2022-11-14T08:52:43;10.60;74.20
76168;DHT22;64927;48.214;16.378;2022-11-14T08:55:13;10.60;74.20
76168;DHT22;64927;48.214;16.378;2022-11-14T08:57:38;10.70;74.10
76168;DHT22;64927;48.214;16.378;2022-11-14T09:00:04;10.80;73.80
76168;DHT22;64927;48.214;16.378;2022-11-14T09:02:30;10.70;73.40
76168;DHT22;64927;48.214;16.378;2022-11-14T09:04:56;10.70;73.50
76168;DHT22;64927;48.214;16.378;2022-11-14T09:07:21;10.80;73.40
76168;DHT22;64927;48.214;16.378;2022-11-14T09:09:47;10.70;73.20
76168;DHT22;64927;48.214;16.378;2022-11-14T09:12:15;10.80;73.60
76168;DHT22;64927;48.214;16.378;2022-11-14T09:14:41;10.90;73.50
76168;DHT22;64927;48.214;16.378;2022-11-14T09:17:07;11.00;72.70
76168;DHT22;64927;48.214;16.378;2022-11-14T09:19:35;11.10;72.40
76168;DHT22;64927;48.214;16.378;2022-11-14T09:22:01;11.10;72.10
76168;DHT22;64927;48.214;16.378;2022-11-14T09:24:27;11.30;72.30
76168;DHT22;64927;48.214;16.378;2022-11-14T09:26:53;11.40;71.30
76168;DHT22;64927;48.214;16.378;2022-11-14T09:29:18;11.40;71.40
76168;DHT22;64927;48.214;16.378;2022-11-14T09:31:44;11.50;71.20
76168;DHT22;64927;48.214;16.378;2022-11-14T09:34:10;11.50;71.60
76168;DHT22;64927;48.214;16.378;2022-11-14T09:36:35;11.80;71.20
76168;DHT22;64927;48.214;16.378;2022-11-14T09:39:01;11.90;70.20
76168;DHT22;64927;48.214;16.378;2022-11-14T09:44:57;12.10;69.00
76168;DHT22;64927;48.214;16.378;2022-11-14T09:47:47;12.20;68.90
76168;DHT22;64927;48.214;16.378;2022-11-14T09:50:21;12.10;68.70
76168;DHT22;64927;48.214;16.378;2022-11-14T09:52:56;12.10;68.80
76168;DHT22;64927;48.214;16.378;2022-11-14T09:55:28;12.20;69.00
76168;DHT22;64927;48.214;16.378;2022-11-14T09:57:55;12.40;68.20
76168;DHT22;64927;48.214;16.378;2022-11-14T10:00:23;12.40;67.50
76168;DHT22;64927;48.214;16.378;2022-11-14T10:06:02;12.30;67.80
76168;DHT22;64927;48.214;16.378;2022-11-14T10:08:46;12.30;67.70
76168;DHT22;64927;48.214;16.378;2022-11-14T10:11:23;12.40;68.30
76168;DHT22;64927;48.214;16.378;2022-11-14T10:14:28;12.50;67.50
76168;DHT22;64927;48.214;16.378;2022-11-14T10:17:22;12.60;67.30
76168;DHT22;64927;48.214;16.378;2022-11-14T10:30:40;12.50;67.60
76168;DHT22;64927;48.214;16.378;2022-11-14T10:33:36;12.50;67.60
76168;DHT22;64927;48.214;16.378;2022-11-14T10:36:15;12.60;67.80
76168;DHT22;64927;48.214;16.378;2022-11-14T10:38:51;12.70;67.40
76168;DHT22;64927;48.214;16.378;2022-11-14T10:41:18;12.70;67.20
76168;DHT22;64927;48.214;16.378;2022-11-14T10:43:48;12.60;67.10
76168;DHT22;64927;48.214;16.378;2022-11-14T10:46:25;12.60;67.30
76168;DHT22;64927;48.214;16.378;2022-11-14T10:48:51;12.30;67.50
76168;DHT22;64927;48.214;16.378;2022-11-14T10:54:02;12.10;68.20
76168;DHT22;64927;48.214;16.378;2022-11-14T10:56:31;12.10;68.60
76168;DHT22;64927;48.214;16.378;2022-11-14T10:58:57;12.00;68.80
76168;DHT22;64927;48.214;16.378;2022-11-14T11:09:39;12.20;68.50
76168;DHT22;64927;48.214;16.378;2022-11-14T11:12:42;12.20;68.10
76168;DHT22;64927;48.214;16.378;2022-11-14T11:15:19;12.10;68.20
76168;DHT22;64927;48.214;16.378;2022-11-14T11:17:56;12.10;68.20
76168;DHT22;64927;48.214;16.378;2022-11-14T11:23:05;11.90;68.50
76168;DHT22;64927;48.214;16.378;2022-11-14T11:25:34;11.80;68.90
76168;DHT22;64927;48.214;16.378;2022-11-14T11:28:16;11.80;68.70
76168;DHT22;64927;48.214;16.378;2022-11-14T11:33:27;12.00;67.80
76168;DHT22;64927;48.214;16.378;2022-11-14T11:35:56;12.00;67.80
76168;DHT22;64927;48.214;16.378;2022-11-14T11:38:27;12.00;68.00
76168;DHT22;64927;48.214;16.378;2022-11-14T11:43:44;11.90;67.90
76168;DHT22;64927;48.214;16.378;2022-11-14T11:51:45;12.20;67.00
76168;DHT22;64927;48.214;16.378;2022-11-14T11:54:21;12.10;67.00
76168;DHT22;64927;48.214;16.378;2022-11-14T11:56:52;12.10;67.40
76168;DHT22;64927;48.214;16.378;2022-11-14T11:59:36;11.90;67.70
76168;DHT22;64927;48.214;16.378;2022-11-14T12:02:25;12.00;67.90
76168;DHT22;64927;48.214;16.378;2022-11-14T12:04:53;12.00;67.70
76168;DHT22;64927;48.214;16.378;2022-11-14T12:07:39;12.00;68.00
76168;DHT22;64927;48.214;16.378;2022-11-14T12:10:23;11.90;68.10
76168;DHT22;64927;48.214;16.378;2022-11-14T12:15:46;11.90;68.60
76168;DHT22;64927;48.214;16.378;2022-11-14T12:21:09;11.80;68.80
76168;DHT22;64927;48.214;16.378;2022-11-14T12:26:32;12.00;68.50
76168;DHT22;64927;48.214;16.378;2022-11-14T12:29:14;12.20;68.10
76168;DHT22;64927;48.214;16.378;2022-11-14T12:31:45;12.20;67.90
76168;DHT22;64927;48.214;16.378;2022-11-14T12:34:25;12.20;67.80
76168;DHT22;64927;48.214;16.378;2022-11-14T12:36:51;12.30;67.70
76168;DHT22;64927;48.214;16.378;2022-11-14T12:39:25;12.30;67.70
76168;DHT22;64927;48.214;16.378;2022-11-14T12:42:06;12.30;67.80
76168;DHT22;64927;48.214;16.378;2022-11-14T12:44:38;12.30;67.50
76168;DHT22;64927;48.214;16.378;2022-11-14T12:49:39;12.40;68.00
76168;DHT22;64927;48.214;16.378;2022-11-14T13:00:32;12.70;66.90
76168;DHT22;64927;48.214;16.378;2022-11-14T13:03:19;12.60;67.20
76168;DHT22;64927;48.214;16.378;2022-11-14T13:06:06;12.50;67.70
76168;DHT22;64927;48.214;16.378;2022-11-14T13:14:16;12.80;67.50
76168;DHT22;64927;48.214;16.378;2022-11-14T13:17:22;12.80;67.20
76168;DHT22;64927;48.214;16.378;2022-11-14T13:20:33;12.80;67.30
76168;DHT22;64927;48.214;16.378;2022-11-14T13:36:07;13.10;66.80
76168;DHT22;64927;48.214;16.378;2022-11-14T13:39:02;13.00;66.80
76168;DHT22;64927;48.214;16.378;2022-11-14T13:50:34;13.10;66.90
76168;DHT22;64927;48.214;16.378;2022-11-14T13:53:02;13.00;66.90
76168;DHT22;64927;48.214;16.378;2022-11-14T14:06:15;11.70;70.20
76168;DHT22;64927;48.214;16.378;2022-11-14T14:08:55;11.40;71.20
76168;DHT22;64927;48.214;16.378;2022-11-14T14:11:48;11.20;71.90
76168;DHT22;64927;48.214;16.378;2022-11-14T14:17:29;10.70;74.10
76168;DHT22;64927;48.214;16.378;2022-11-14T14:23:43;10.50;75.20
76168;DHT22;64927;48.214;16.378;2022-11-14T14:26:38;10.50;75.50
76168;DHT22;64927;48.214;16.378;2022-11-14T14:29:22;10.40;76.00
76168;DHT22;64927;48.214;16.378;2022-11-14T14:31:48;10.40;76.00
76168;DHT22;64927;48.214;16.378;2022-11-14T14:34:32;10.40;76.10
76168;DHT22;64927;48.214;16.378;2022-11-14T14:36:58;10.40;76.40
76168;DHT22;64927;48.214;16.378;2022-11-14T14:39:26;10.40;76.50
76168;DHT22;64927;48.214;16.378;2022-11-14T14:41:57;10.30;76.90
76168;DHT22;64927;48.214;16.378;2022-11-14T14:44:39;10.30;76.90
76168;DHT22;64927;48.214;16.378;2022-11-14T14:47:32;10.30;77.10
76168;DHT22;64927;48.214;16.378;2022-11-14T14:50:00;10.20;77.30
76168;DHT22;64927;48.214;16.378;2022-11-14T14:52:35;10.30;77.30
76168;DHT22;64927;48.214;16.378;2022-11-14T14:55:05;10.20;77.70
76168;DHT22;64927;48.214;16.378;2022-11-14T14:57:37;10.10;78.80
76168;DHT22;64927;48.214;16.378;2022-11-14T15:02:45;10.10;78.00
76168;DHT22;64927;48.214;16.378;2022-11-14T15:05:19;10.10;78.20
76168;DHT22;64927;48.214;16.378;2022-11-14T15:07:45;10.00;78.70
76168;DHT22;64927;48.214;16.378;2022-11-14T15:10:26;9.90;78.90
76168;DHT22;64927;48.214;16.378;2022-11-14T15:13:03;10.00;78.90
76168;DHT22;64927;48.214;16.378;2022-11-14T15:15:32;10.00;78.70
76168;DHT22;64927;48.214;16.378;2022-11-14T15:17:59;10.10;78.70
76168;DHT22;64927;48.214;16.378;2022-11-14T15:20:28;10.10;78.50
76168;DHT22;64927;48.214;16.378;2022-11-14T15:25:37;10.20;78.10
76168;DHT22;64927;48.214;16.378;2022-11-14T15:28:03;10.20;78.30
76168;DHT22;64927;48.214;16.378;2022-11-14T15:30:32;10.20;78.30
76168;DHT22;64927;48.214;16.378;2022-11-14T15:33:24;10.30;78.20
76168;DHT22;64927;48.214;16.378;2022-11-14T15:36:04;10.30;77.90
76168;DHT22;64927;48.214;16.378;2022-11-14T15:38:32;10.20;78.40
76168;DHT22;64927;48.214;16.378;2022-11-14T15:41:22;10.10;78.80
76168;DHT22;64927;48.214;16.378;2022-11-14T15:43:52;10.10;78.80
76168;DHT22;64927;48.214;16.378;2022-11-14T15:46:42;10.20;78.80
76168;DHT22;64927;48.214;16.378;2022-11-14T15:49:24;10.20;79.30
76168;DHT22;64927;48.214;16.378;2022-11-14T15:54:31;10.20;78.50
76168;DHT22;64927;48.214;16.378;2022-11-14T15:57:14;10.20;78.60
76168;DHT22;64927;48.214;16.378;2022-11-14T15:59:41;10.10;78.90
76168;DHT22;64927;48.214;16.378;2022-11-14T16:04:43;10.20;78.90
76168;DHT22;64927;48.214;16.378;2022-11-14T16:07:11;10.20;78.60
76168;DHT22;64927;48.214;16.378;2022-11-14T16:09:37;10.20;78.40
76168;DHT22;64927;48.214;16.378;2022-11-14T16:12:03;10.20;78.80
76168;DHT22;64927;48.214;16.378;2022-11-14T16:14:31;10.10;79.10
76168;DHT22;64927;48.214;16.378;2022-11-14T16:16:57;10.20;79.00
76168;DHT22;64927;48.214;16.378;2022-11-14T16:19:23;10.20;78.80
76168;DHT22;64927;48.214;16.378;2022-11-14T16:21:48;10.20;78.50
76168;DHT22;64927;48.214;16.378;2022-11-14T16:24:22;10.20;78.50
76168;DHT22;64927;48.214;16.378;2022-11-14T16:26:51;10.20;78.80
76168;DHT22;64927;48.214;16.378;2022-11-14T16:29:16;10.20;78.80
76168;DHT22;64927;48.214;16.378;2022-11-14T16:31:42;10.20;78.60
76168;DHT22;64927;48.214;16.378;2022-11-14T16:34:22;10.20;78.40
76168;DHT22;64927;48.214;16.378;2022-11-14T16:36:50;10.30;78.10
76168;DHT22;64927;48.214;16.378;2022-11-14T16:39:23;10.30;78.10
76168;DHT22;64927;48.214;16.378;2022-11-14T16:41:49;10.20;78.10
76168;DHT22;64927;48.214;16.378;2022-11-14T16:44:17;10.20;78.50
76168;DHT22;64927;48.214;16.378;2022-11-14T16:46:44;10.20;78.80
76168;DHT22;64927;48.214;16.378;2022-11-14T16:49:18;10.20;78.80
76168;DHT22;64927;48.214;16.378;2022-11-14T16:51:47;10.10;78.70
76168;DHT22;64927;48.214;16.378;2022-11-14T16:54:16;10.00;79.20
76168;DHT22;64927;48.214;16.378;2022-11-14T16:56:45;10.10;79.10
76168;DHT22;64927;48.214;16.378;2022-11-14T16:59:11;10.10;79.00
76168;DHT22;64927;48.214;16.378;2022-11-14T17:01:37;10.10;79.00
76168;DHT22;64927;48.214;16.378;2022-11-14T17:04:03;10.10;79.00
76168;DHT22;64927;48.214;16.378;2022-11-14T17:06:29;10.00;79.40
76168;DHT22;64927;48.214;16.378;2022-11-14T17:08:56;10.00;79.20
76168;DHT22;64927;48.214;16.378;2022-11-14T17:11:22;10.00;79.30
76168;DHT22;64927;48.214;16.378;2022-11-14T17:13:52;10.00;79.20
76168;DHT22;64927;48.214;16.378;2022-11-14T17:16:21;10.00;79.20
76168;DHT22;64927;48.214;16.378;2022-11-14T17:18:54;10.00;79.30
76168;DHT22;64927;48.214;16.378;2022-11-14T17:21:20;10.00;79.40
76168;DHT22;64927;48.214;16.378;2022-11-14T17:23:46;10.00;79.40
76168;DHT22;64927;48.214;16.378;2022-11-14T17:26:12;10.10;79.10
76168;DHT22;64927;48.214;16.378;2022-11-14T17:28:40;10.20;78.80
76168;DHT22;64927;48.214;16.378;2022-11-14T17:31:08;10.10;78.70
76168;DHT22;64927;48.214;16.378;2022-11-14T17:33:34;10.10;78.70
76168;DHT22;64927;48.214;16.378;2022-11-14T17:36:08;10.10;78.90
76168;DHT22;64927;48.214;16.378;2022-11-14T17:38:37;10.10;78.70